sensor_id;sensor_type;location;lat;lon;timestamp;temperature;humidity
80232;DHT22;74189;42.124;24.752;2024-03-02T00:00:26;11.00;75.40
80232;DHT22;74189;42.124;24.752;2024-03-02T00:02:56;11.00;75.40
80232;DHT22;74189;42.124;24.752;2024-03-02T00:05:22;11.10;75.30
80232;DHT22;74189;42.124;24.752;2024-03-02T00:07:56;11.00;75.20
80232;DHT22;74189;42.124;24.752;2024-03-02T00:10:26;11.00;75.30
80232;DHT22;74189;42.124;24.752;2024-03-02T00:12:58;11.20;74.70
80232;DHT22;74189;42.124;24.752;2024-03-02T00:15:48;11.20;74.30
80232;DHT22;74189;42.124;24.752;2024-03-02T00:18:30;11.00;74.90
80232;DHT22;74189;42.124;24.752;2024-03-02T00:20:57;10.80;75.80
80232;DHT22;74189;42.124;24.752;2024-03-02T00:23:26;10.70;76.50
80232;DHT22;74189;42.124;24.752;2024-03-02T00:25:56;10.70;76.20
80232;DHT22;74189;42.124;24.752;2024-03-02T00:28:34;10.80;76.10
80232;DHT22;74189;42.124;24.752;2024-03-02T00:33:36;10.80;76.10
80232;DHT22;74189;42.124;24.752;2024-03-02T00:36:04;10.50;76.80
80232;DHT22;74189;42.124;24.752;2024-03-02T00:38:34;10.50;77.20
80232;DHT22;74189;42.124;24.752;2024-03-02T00:41:05;10.60;76.90
80232;DHT22;74189;42.124;24.752;2024-03-02T00:46:06;10.50;77.30
80232;DHT22;74189;42.124;24.752;2024-03-02T00:48:35;10.50;77.00
80232;DHT22;74189;42.124;24.752;2024-03-02T00:51:05;10.50;77.30
80232;DHT22;74189;42.124;24.752;2024-03-02T00:53:32;10.60;76.80
80232;DHT22;74189;42.124;24.752;2024-03-02T00:56:09;10.40;77.60
80232;DHT22;74189;42.124;24.752;2024-03-02T00:58:40;10.20;78.90
80232;DHT22;74189;42.124;24.752;2024-03-02T01:01:06;10.30;78.20
80232;DHT22;74189;42.124;24.752;2024-03-02T01:03:34;10.40;78.90
80232;DHT22;74189;42.124;24.752;2024-03-02T01:06:07;10.60;77.30
80232;DHT22;74189;42.124;24.752;2024-03-02T01:08:39;10.70;76.60
80232;DHT22;74189;42.124;24.752;2024-03-02T01:11:06;10.50;78.10
80232;DHT22;74189;42.124;24.752;2024-03-02T01:13:32;10.40;77.90
80232;DHT22;74189;42.124;24.752;2024-03-02T01:15:59;10.20;78.60
80232;DHT22;74189;42.124;24.752;2024-03-02T01:18:29;10.40;78.10
80232;DHT22;74189;42.124;24.752;2024-03-02T01:20:55;10.20;78.40
80232;DHT22;74189;42.124;24.752;2024-03-02T01:23:24;10.30;78.90
80232;DHT22;74189;42.124;24.752;2024-03-02T01:25:51;10.50;78.40
80232;DHT22;74189;42.124;24.752;2024-03-02T01:28:18;10.60;77.50
80232;DHT22;74189;42.124;24.752;2024-03-02T01:30:46;10.70;76.80
80232;DHT22;74189;42.124;24.752;2024-03-02T01:33:14;10.60;77.10
80232;DHT22;74189;42.124;24.752;2024-03-02T01:35:40;10.60;77.20
80232;DHT22;74189;42.124;24.752;2024-03-02T01:38:07;10.60;77.50
80232;DHT22;74189;42.124;24.752;2024-03-02T01:40:34;10.50;77.60
80232;DHT22;74189;42.124;24.752;2024-03-02T01:43:00;10.60;77.60
80232;DHT22;74189;42.124;24.752;2024-03-02T01:45:28;10.70;77.30
80232;DHT22;74189;42.124;24.752;2024-03-02T01:47:55;10.60;77.30
80232;DHT22;74189;42.124;24.752;2024-03-02T01:50:29;10.60;77.50
80232;DHT22;74189;42.124;24.752;2024-03-02T01:52:55;10.70;77.20
80232;DHT22;74189;42.124;24.752;2024-03-02T01:55:22;11.00;76.20
80232;DHT22;74189;42.124;24.752;2024-03-02T01:57:49;10.90;76.00
80232;DHT22;74189;42.124;24.752;2024-03-02T02:00:19;10.80;76.40
80232;DHT22;74189;42.124;24.752;2024-03-02T02:02:47;10.70;76.60
80232;DHT22;74189;42.124;24.752;2024-03-02T02:05:14;10.60;77.60
80232;DHT22;74189;42.124;24.752;2024-03-02T02:07:41;10.70;77.50
80232;DHT22;74189;42.124;24.752;2024-03-02T02:10:08;10.70;77.30
80232;DHT22;74189;42.124;24.752;2024-03-02T02:12:35;10.70;77.50
80232;DHT22;74189;42.124;24.752;2024-03-02T02:15:01;10.70;76.80
80232;DHT22;74189;42.124;24.752;2024-03-02T02:17:27;10.70;77.30
80232;DHT22;74189;42.124;24.752;2024-03-02T02:19:54;10.70;77.30
80232;DHT22;74189;42.124;24.752;2024-03-02T02:22:20;10.70;77.30
80232;DHT22;74189;42.124;24.752;2024-03-02T02:24:46;10.70;77.50
80232;DHT22;74189;42.124;24.752;2024-03-02T02:27:12;10.60;78.30
80232;DHT22;74189;42.124;24.752;2024-03-02T02:29:41;10.40;78.80
80232;DHT22;74189;42.124;24.752;2024-03-02T02:32:08;10.40;78.70
80232;DHT22;74189;42.124;24.752;2024-03-02T02:34:34;10.30;79.00
80232;DHT22;74189;42.124;24.752;2024-03-02T02:37:00;10.30;79.50
80232;DHT22;74189;42.124;24.752;2024-03-02T02:39:26;10.30;79.20
80232;DHT22;74189;42.124;24.752;2024-03-02T02:41:53;10.40;79.30
80232;DHT22;74189;42.124;24.752;2024-03-02T02:44:19;10.40;79.00
80232;DHT22;74189;42.124;24.752;2024-03-02T02:46:45;10.60;78.10
80232;DHT22;74189;42.124;24.752;2024-03-02T02:49:12;10.60;77.80
80232;DHT22;74189;42.124;24.752;2024-03-02T02:51:38;10.60;77.80
80232;DHT22;74189;42.124;24.752;2024-03-02T02:54:04;10.50;78.50
80232;DHT22;74189;42.124;24.752;2024-03-02T02:56:30;10.50;78.40
80232;DHT22;74189;42.124;24.752;2024-03-02T02:58:57;10.40;78.70
80232;DHT22;74189;42.124;24.752;2024-03-02T03:01:23;10.60;78.20
80232;DHT22;74189;42.124;24.752;2024-03-02T03:03:49;10.60;77.90
80232;DHT22;74189;42.124;24.752;2024-03-02T03:06:15;10.60;78.10
80232;DHT22;74189;42.124;24.752;2024-03-02T03:08:42;10.70;77.90
80232;DHT22;74189;42.124;24.752;2024-03-02T03:11:08;10.80;77.10
80232;DHT22;74189;42.124;24.752;2024-03-02T03:13:35;11.00;76.40
80232;DHT22;74189;42.124;24.752;2024-03-02T03:16:03;10.90;77.10
80232;DHT22;74189;42.124;24.752;2024-03-02T03:18:29;10.70;77.60
80232;DHT22;74189;42.124;24.752;2024-03-02T03:20:56;10.80;77.80
80232;DHT22;74189;42.124;24.752;2024-03-02T03:23:22;10.80;77.50
80232;DHT22;74189;42.124;24.752;2024-03-02T03:25:48;10.70;78.10
80232;DHT22;74189;42.124;24.752;2024-03-02T03:28:14;10.60;78.40
80232;DHT22;74189;42.124;24.752;2024-03-02T03:30:41;10.50;78.40
80232;DHT22;74189;42.124;24.752;2024-03-02T03:33:07;10.70;78.50
80232;DHT22;74189;42.124;24.752;2024-03-02T03:35:33;10.50;78.40
80232;DHT22;74189;42.124;24.752;2024-03-02T03:38:03;10.40;79.10
80232;DHT22;74189;42.124;24.752;2024-03-02T03:40:30;10.30;79.80
80232;DHT22;74189;42.124;24.752;2024-03-02T03:42:56;10.40;79.70
80232;DHT22;74189;42.124;24.752;2024-03-02T03:45:22;10.50;79.10
80232;DHT22;74189;42.124;24.752;2024-03-02T03:47:51;10.50;78.50
80232;DHT22;74189;42.124;24.752;2024-03-02T03:50:17;10.60;78.50
80232;DHT22;74189;42.124;24.752;2024-03-02T03:52:43;10.60;78.40
80232;DHT22;74189;42.124;24.752;2024-03-02T03:55:10;10.70;78.20
80232;DHT22;74189;42.124;24.752;2024-03-02T03:57:36;10.80;77.60
80232;DHT22;74189;42.124;24.752;2024-03-02T04:00:03;10.80;77.20
80232;DHT22;74189;42.124;24.752;2024-03-02T04:02:30;10.80;77.40
80232;DHT22;74189;42.124;24.752;2024-03-02T04:04:56;10.80;77.40
80232;DHT22;74189;42.124;24.752;2024-03-02T04:07:22;10.70;77.70
80232;DHT22;74189;42.124;24.752;2024-03-02T04:09:48;10.80;77.90
80232;DHT22;74189;42.124;24.752;2024-03-02T04:12:15;10.90;77.30
80232;DHT22;74189;42.124;24.752;2024-03-02T04:14:41;11.00;76.90
80232;DHT22;74189;42.124;24.752;2024-03-02T04:17:08;10.90;76.90
80232;DHT22;74189;42.124;24.752;2024-03-02T04:19:36;10.90;76.90
80232;DHT22;74189;42.124;24.752;2024-03-02T04:22:02;11.00;77.10
80232;DHT22;74189;42.124;24.752;2024-03-02T04:24:29;10.90;76.90
80232;DHT22;74189;42.124;24.752;2024-03-02T04:26:56;10.90;77.20
80232;DHT22;74189;42.124;24.752;2024-03-02T04:29:22;10.90;77.20
80232;DHT22;74189;42.124;24.752;2024-03-02T04:31:48;10.60;77.70
80232;DHT22;74189;42.124;24.752;2024-03-02T04:34:14;10.40;79.40
80232;DHT22;74189;42.124;24.752;2024-03-02T04:36:40;10.30;80.40
80232;DHT22;74189;42.124;24.752;2024-03-02T04:39:07;10.40;80.20
80232;DHT22;74189;42.124;24.752;2024-03-02T04:41:35;10.50;79.70
80232;DHT22;74189;42.124;24.752;2024-03-02T04:44:02;10.60;79.60
80232;DHT22;74189;42.124;24.752;2024-03-02T04:46:28;10.50;79.60
80232;DHT22;74189;42.124;24.752;2024-03-02T04:48:54;10.50;80.10
80232;DHT22;74189;42.124;24.752;2024-03-02T04:51:23;10.50;80.00
80232;DHT22;74189;42.124;24.752;2024-03-02T04:53:49;10.60;79.30
80232;DHT22;74189;42.124;24.752;2024-03-02T04:56:15;10.60;80.20
80232;DHT22;74189;42.124;24.752;2024-03-02T04:58:53;10.70;79.00
80232;DHT22;74189;42.124;24.752;2024-03-02T05:01:20;10.70;79.90
80232;DHT22;74189;42.124;24.752;2024-03-02T05:03:46;10.80;78.60
80232;DHT22;74189;42.124;24.752;2024-03-02T05:06:12;10.70;78.60
80232;DHT22;74189;42.124;24.752;2024-03-02T05:08:38;10.70;78.70
80232;DHT22;74189;42.124;24.752;2024-03-02T05:11:04;10.70;79.20
80232;DHT22;74189;42.124;24.752;2024-03-02T05:13:49;10.70;78.80
80232;DHT22;74189;42.124;24.752;2024-03-02T05:16:15;10.80;78.40
80232;DHT22;74189;42.124;24.752;2024-03-02T05:18:41;10.80;78.60
80232;DHT22;74189;42.124;24.752;2024-03-02T05:21:08;10.70;78.50
80232;DHT22;74189;42.124;24.752;2024-03-02T05:23:34;10.70;78.80
80232;DHT22;74189;42.124;24.752;2024-03-02T05:26:00;10.50;79.60
80232;DHT22;74189;42.124;24.752;2024-03-02T05:28:27;10.70;79.80
80232;DHT22;74189;42.124;24.752;2024-03-02T05:30:53;10.50;79.70
80232;DHT22;74189;42.124;24.752;2024-03-02T05:33:19;10.60;79.80
80232;DHT22;74189;42.124;24.752;2024-03-02T05:35:48;10.50;80.00
80232;DHT22;74189;42.124;24.752;2024-03-02T05:38:16;10.30;81.50
80232;DHT22;74189;42.124;24.752;2024-03-02T05:40:42;10.40;81.40
80232;DHT22;74189;42.124;24.752;2024-03-02T05:43:08;10.50;81.10
80232;DHT22;74189;42.124;24.752;2024-03-02T05:45:34;10.50;81.00
80232;DHT22;74189;42.124;24.752;2024-03-02T05:48:00;10.50;80.70
80232;DHT22;74189;42.124;24.752;2024-03-02T05:50:27;10.40;81.00
80232;DHT22;74189;42.124;24.752;2024-03-02T05:52:53;10.40;81.20
80232;DHT22;74189;42.124;24.752;2024-03-02T05:55:19;10.30;82.30
80232;DHT22;74189;42.124;24.752;2024-03-02T05:57:46;10.40;81.70
80232;DHT22;74189;42.124;24.752;2024-03-02T06:00:24;10.60;80.20
80232;DHT22;74189;42.124;24.752;2024-03-02T06:02:50;10.40;81.00
80232;DHT22;74189;42.124;24.752;2024-03-02T06:05:16;10.50;80.70
80232;DHT22;74189;42.124;24.752;2024-03-02T06:07:44;10.50;81.00
80232;DHT22;74189;42.124;24.752;2024-03-02T06:10:11;10.60;80.80
80232;DHT22;74189;42.124;24.752;2024-03-02T06:12:37;10.60;80.20
80232;DHT22;74189;42.124;24.752;2024-03-02T06:15:04;10.60;80.00
80232;DHT22;74189;42.124;24.752;2024-03-02T06:17:30;10.60;80.20
80232;DHT22;74189;42.124;24.752;2024-03-02T06:19:56;10.60;80.10
80232;DHT22;74189;42.124;24.752;2024-03-02T06:22:23;10.70;79.80
80232;DHT22;74189;42.124;24.752;2024-03-02T06:24:51;10.30;82.40
80232;DHT22;74189;42.124;24.752;2024-03-02T06:27:17;10.10;83.90
80232;DHT22;74189;42.124;24.752;2024-03-02T06:29:43;10.00;84.90
80232;DHT22;74189;42.124;24.752;2024-03-02T06:32:10;10.20;83.70
80232;DHT22;74189;42.124;24.752;2024-03-02T06:34:36;10.10;84.80
80232;DHT22;74189;42.124;24.752;2024-03-02T06:37:02;10.00;86.00
80232;DHT22;74189;42.124;24.752;2024-03-02T06:39:29;10.10;86.00
80232;DHT22;74189;42.124;24.752;2024-03-02T06:41:57;10.10;84.20
80232;DHT22;74189;42.124;24.752;2024-03-02T06:44:23;10.00;86.00
80232;DHT22;74189;42.124;24.752;2024-03-02T06:46:49;10.00;85.30
80232;DHT22;74189;42.124;24.752;2024-03-02T06:49:15;10.10;85.20
80232;DHT22;74189;42.124;24.752;2024-03-02T06:51:44;10.20;85.40
80232;DHT22;74189;42.124;24.752;2024-03-02T06:54:10;10.30;84.30
80232;DHT22;74189;42.124;24.752;2024-03-02T06:56:36;10.40;83.90
80232;DHT22;74189;42.124;24.752;2024-03-02T06:59:04;10.40;83.70
80232;DHT22;74189;42.124;24.752;2024-03-02T07:01:30;10.30;84.10
80232;DHT22;74189;42.124;24.752;2024-03-02T07:03:57;10.50;82.90
80232;DHT22;74189;42.124;24.752;2024-03-02T07:06:23;10.40;83.60
80232;DHT22;74189;42.124;24.752;2024-03-02T07:08:49;10.40;83.00
80232;DHT22;74189;42.124;24.752;2024-03-02T07:11:15;10.30;84.40
80232;DHT22;74189;42.124;24.752;2024-03-02T07:13:42;10.30;84.10
80232;DHT22;74189;42.124;24.752;2024-03-02T07:16:08;10.30;84.30
80232;DHT22;74189;42.124;24.752;2024-03-02T07:18:37;10.40;84.90
80232;DHT22;74189;42.124;24.752;2024-03-02T07:21:07;10.40;85.10
80232;DHT22;74189;42.124;24.752;2024-03-02T07:23:34;10.50;85.20
80232;DHT22;74189;42.124;24.752;2024-03-02T07:26:01;10.60;83.50
80232;DHT22;74189;42.124;24.752;2024-03-02T07:28:28;10.70;81.70
80232;DHT22;74189;42.124;24.752;2024-03-02T07:31:01;10.80;81.50
80232;DHT22;74189;42.124;24.752;2024-03-02T07:33:28;10.70;82.30
80232;DHT22;74189;42.124;24.752;2024-03-02T07:35:55;10.80;82.40
80232;DHT22;74189;42.124;24.752;2024-03-02T07:38:22;10.60;83.40
80232;DHT22;74189;42.124;24.752;2024-03-02T07:40:49;10.70;81.90
80232;DHT22;74189;42.124;24.752;2024-03-02T07:43:19;10.60;82.70
80232;DHT22;74189;42.124;24.752;2024-03-02T07:45:46;10.70;82.70
80232;DHT22;74189;42.124;24.752;2024-03-02T07:48:13;10.80;82.10
80232;DHT22;74189;42.124;24.752;2024-03-02T07:50:39;10.90;81.00
80232;DHT22;74189;42.124;24.752;2024-03-02T07:53:06;10.90;81.00
80232;DHT22;74189;42.124;24.752;2024-03-02T07:55:33;10.80;81.90
80232;DHT22;74189;42.124;24.752;2024-03-02T07:58:00;10.70;82.80
80232;DHT22;74189;42.124;24.752;2024-03-02T08:00:27;10.80;82.00
80232;DHT22;74189;42.124;24.752;2024-03-02T08:02:54;10.80;82.60
80232;DHT22;74189;42.124;24.752;2024-03-02T08:05:21;10.80;82.90
80232;DHT22;74189;42.124;24.752;2024-03-02T08:07:48;10.70;83.90
80232;DHT22;74189;42.124;24.752;2024-03-02T08:10:14;10.80;83.70
80232;DHT22;74189;42.124;24.752;2024-03-02T08:12:40;10.90;82.80
80232;DHT22;74189;42.124;24.752;2024-03-02T08:15:07;10.90;82.60
80232;DHT22;74189;42.124;24.752;2024-03-02T08:17:33;10.80;82.80
80232;DHT22;74189;42.124;24.752;2024-03-02T08:19:59;10.90;82.30
80232;DHT22;74189;42.124;24.752;2024-03-02T08:22:25;10.90;83.60
80232;DHT22;74189;42.124;24.752;2024-03-02T08:24:52;10.60;84.40
80232;DHT22;74189;42.124;24.752;2024-03-02T08:27:20;10.60;84.70
80232;DHT22;74189;42.124;24.752;2024-03-02T08:29:47;10.60;86.10
80232;DHT22;74189;42.124;24.752;2024-03-02T08:32:13;10.60;86.00
80232;DHT22;74189;42.124;24.752;2024-03-02T08:34:39;10.50;86.10
80232;DHT22;74189;42.124;24.752;2024-03-02T08:37:05;10.50;85.80
80232;DHT22;74189;42.124;24.752;2024-03-02T08:39:32;10.50;86.40
80232;DHT22;74189;42.124;24.752;2024-03-02T08:41:58;10.70;85.30
80232;DHT22;74189;42.124;24.752;2024-03-02T08:44:24;10.50;86.70
80232;DHT22;74189;42.124;24.752;2024-03-02T08:46:51;10.60;86.90
80232;DHT22;74189;42.124;24.752;2024-03-02T08:49:17;10.00;88.10
80232;DHT22;74189;42.124;24.752;2024-03-02T08:51:43;10.20;87.80
80232;DHT22;74189;42.124;24.752;2024-03-02T08:54:10;10.40;87.10
80232;DHT22;74189;42.124;24.752;2024-03-02T08:56:36;10.50;85.70
80232;DHT22;74189;42.124;24.752;2024-03-02T08:59:02;10.40;86.50
80232;DHT22;74189;42.124;24.752;2024-03-02T09:01:29;10.30;87.40
80232;DHT22;74189;42.124;24.752;2024-03-02T09:03:55;10.40;86.50
80232;DHT22;74189;42.124;24.752;2024-03-02T09:06:21;10.20;87.70
80232;DHT22;74189;42.124;24.752;2024-03-02T09:08:48;10.40;87.60
80232;DHT22;74189;42.124;24.752;2024-03-02T09:11:15;10.60;85.00
80232;DHT22;74189;42.124;24.752;2024-03-02T09:13:42;10.80;84.20
80232;DHT22;74189;42.124;24.752;2024-03-02T09:16:08;10.90;83.20
80232;DHT22;74189;42.124;24.752;2024-03-02T09:18:37;11.10;83.40
80232;DHT22;74189;42.124;24.752;2024-03-02T09:21:04;10.90;83.90
80232;DHT22;74189;42.124;24.752;2024-03-02T09:23:30;10.90;84.20
80232;DHT22;74189;42.124;24.752;2024-03-02T09:25:56;10.70;83.90
80232;DHT22;74189;42.124;24.752;2024-03-02T09:28:23;10.70;85.00
80232;DHT22;74189;42.124;24.752;2024-03-02T09:30:49;10.70;85.20
80232;DHT22;74189;42.124;24.752;2024-03-02T09:33:15;10.90;85.00
80232;DHT22;74189;42.124;24.752;2024-03-02T09:35:42;11.00;84.50
80232;DHT22;74189;42.124;24.752;2024-03-02T09:38:08;11.20;84.30
80232;DHT22;74189;42.124;24.752;2024-03-02T09:40:35;11.30;81.80
80232;DHT22;74189;42.124;24.752;2024-03-02T09:43:03;11.40;81.70
80232;DHT22;74189;42.124;24.752;2024-03-02T09:45:30;11.40;81.40
80232;DHT22;74189;42.124;24.752;2024-03-02T09:47:56;11.50;80.20
80232;DHT22;74189;42.124;24.752;2024-03-02T09:50:22;11.60;79.50
80232;DHT22;74189;42.124;24.752;2024-03-02T09:52:49;11.70;79.20
80232;DHT22;74189;42.124;24.752;2024-03-02T09:55:19;11.70;79.20
80232;DHT22;74189;42.124;24.752;2024-03-02T09:57:46;11.80;79.10
80232;DHT22;74189;42.124;24.752;2024-03-02T10:00:13;11.80;78.90
80232;DHT22;74189;42.124;24.752;2024-03-02T10:02:43;11.80;78.90
80232;DHT22;74189;42.124;24.752;2024-03-02T10:05:10;11.90;78.60
80232;DHT22;74189;42.124;24.752;2024-03-02T10:07:37;12.00;78.10
80232;DHT22;74189;42.124;24.752;2024-03-02T10:10:14;12.10;77.30
80232;DHT22;74189;42.124;24.752;2024-03-02T10:12:41;12.40;76.00
80232;DHT22;74189;42.124;24.752;2024-03-02T10:15:07;12.50;75.20
80232;DHT22;74189;42.124;24.752;2024-03-02T10:17:35;12.60;75.40
80232;DHT22;74189;42.124;24.752;2024-03-02T10:20:23;12.60;73.90
80232;DHT22;74189;42.124;24.752;2024-03-02T10:22:50;12.60;76.00
80232;DHT22;74189;42.124;24.752;2024-03-02T10:25:32;12.80;75.20
80232;DHT22;74189;42.124;24.752;2024-03-02T10:27:59;13.00;73.60
80232;DHT22;74189;42.124;24.752;2024-03-02T10:30:29;13.10;74.40
80232;DHT22;74189;42.124;24.752;2024-03-02T10:32:55;13.10;72.90
80232;DHT22;74189;42.124;24.752;2024-03-02T10:35:24;13.20;72.80
80232;DHT22;74189;42.124;24.752;2024-03-02T10:37:52;13.30;71.80
80232;DHT22;74189;42.124;24.752;2024-03-02T10:40:24;13.30;72.40
80232;DHT22;74189;42.124;24.752;2024-03-02T10:42:51;13.30;72.20
80232;DHT22;74189;42.124;24.752;2024-03-02T10:45:20;13.20;73.90
80232;DHT22;74189;42.124;24.752;2024-03-02T10:47:50;13.20;74.60
80232;DHT22;74189;42.124;24.752;2024-03-02T10:50:17;13.30;72.90
80232;DHT22;74189;42.124;24.752;2024-03-02T10:52:43;13.40;73.10
80232;DHT22;74189;42.124;24.752;2024-03-02T10:55:10;13.50;72.10
80232;DHT22;74189;42.124;24.752;2024-03-02T10:57:51;13.50;71.10
80232;DHT22;74189;42.124;24.752;2024-03-02T11:00:18;13.30;71.20
80232;DHT22;74189;42.124;24.752;2024-03-02T11:02:56;13.30;70.90
80232;DHT22;74189;42.124;24.752;2024-03-02T11:05:34;13.20;72.20
80232;DHT22;74189;42.124;24.752;2024-03-02T11:08:08;13.10;73.70
80232;DHT22;74189;42.124;24.752;2024-03-02T11:10:45;13.00;73.00
80232;DHT22;74189;42.124;24.752;2024-03-02T11:13:14;13.00;74.50
80232;DHT22;74189;42.124;24.752;2024-03-02T11:15:44;13.00;73.80
80232;DHT22;74189;42.124;24.752;2024-03-02T11:18:11;13.10;72.30
80232;DHT22;74189;42.124;24.752;2024-03-02T11:20:39;13.00;72.30
80232;DHT22;74189;42.124;24.752;2024-03-02T11:23:06;13.00;72.30
80232;DHT22;74189;42.124;24.752;2024-03-02T11:25:33;13.10;72.80
80232;DHT22;74189;42.124;24.752;2024-03-02T11:28:01;13.10;72.70
80232;DHT22;74189;42.124;24.752;2024-03-02T11:33:05;13.20;71.60
80232;DHT22;74189;42.124;24.752;2024-03-02T11:35:40;13.20;72.30
80232;DHT22;74189;42.124;24.752;2024-03-02T11:38:12;13.10;73.80
80232;DHT22;74189;42.124;24.752;2024-03-02T11:40:47;13.10;73.30
80232;DHT22;74189;42.124;24.752;2024-03-02T11:43:16;13.10;74.30
80232;DHT22;74189;42.124;24.752;2024-03-02T11:45:43;13.00;74.10
80232;DHT22;74189;42.124;24.752;2024-03-02T11:48:20;13.10;74.20
80232;DHT22;74189;42.124;24.752;2024-03-02T11:50:53;13.30;73.00
80232;DHT22;74189;42.124;24.752;2024-03-02T11:53:21;13.10;72.80
80232;DHT22;74189;42.124;24.752;2024-03-02T11:55:49;13.10;73.00
80232;DHT22;74189;42.124;24.752;2024-03-02T11:58:16;13.10;73.20
80232;DHT22;74189;42.124;24.752;2024-03-02T12:00:53;13.20;73.00
80232;DHT22;74189;42.124;24.752;2024-03-02T12:03:23;13.30;73.80
80232;DHT22;74189;42.124;24.752;2024-03-02T12:05:53;13.30;74.50
80232;DHT22;74189;42.124;24.752;2024-03-02T12:08:20;13.40;72.70
80232;DHT22;74189;42.124;24.752;2024-03-02T12:10:59;13.40;71.60
80232;DHT22;74189;42.124;24.752;2024-03-02T12:13:27;13.50;72.00
80232;DHT22;74189;42.124;24.752;2024-03-02T12:15:54;13.50;70.50
80232;DHT22;74189;42.124;24.752;2024-03-02T12:18:22;13.40;71.60
80232;DHT22;74189;42.124;24.752;2024-03-02T12:20:49;13.30;71.50
80232;DHT22;74189;42.124;24.752;2024-03-02T12:23:19;13.40;71.60
80232;DHT22;74189;42.124;24.752;2024-03-02T12:25:46;13.50;70.70
80232;DHT22;74189;42.124;24.752;2024-03-02T12:28:12;13.40;72.30
80232;DHT22;74189;42.124;24.752;2024-03-02T12:30:39;13.50;72.30
80232;DHT22;74189;42.124;24.752;2024-03-02T12:33:05;13.50;72.30
80232;DHT22;74189;42.124;24.752;2024-03-02T12:35:31;13.30;70.00
80232;DHT22;74189;42.124;24.752;2024-03-02T12:37:57;13.10;72.00
80232;DHT22;74189;42.124;24.752;2024-03-02T12:40:24;12.90;71.10
80232;DHT22;74189;42.124;24.752;2024-03-02T12:42:51;13.00;73.60
80232;DHT22;74189;42.124;24.752;2024-03-02T12:45:17;12.90;72.80
80232;DHT22;74189;42.124;24.752;2024-03-02T12:47:49;12.90;73.50
80232;DHT22;74189;42.124;24.752;2024-03-02T12:50:17;13.10;70.80
80232;DHT22;74189;42.124;24.752;2024-03-02T12:52:44;13.00;72.30
80232;DHT22;74189;42.124;24.752;2024-03-02T12:55:16;12.90;73.40
80232;DHT22;74189;42.124;24.752;2024-03-02T12:57:44;12.80;70.90
80232;DHT22;74189;42.124;24.752;2024-03-02T13:00:11;12.90;71.10
80232;DHT22;74189;42.124;24.752;2024-03-02T13:02:42;12.60;71.60
80232;DHT22;74189;42.124;24.752;2024-03-02T13:05:09;12.40;74.10
80232;DHT22;74189;42.124;24.752;2024-03-02T13:07:40;12.20;73.60
80232;DHT22;74189;42.124;24.752;2024-03-02T13:10:12;12.00;75.50
80232;DHT22;74189;42.124;24.752;2024-03-02T13:12:38;12.10;76.10
80232;DHT22;74189;42.124;24.752;2024-03-02T13:15:05;11.90;75.00
80232;DHT22;74189;42.124;24.752;2024-03-02T13:17:34;12.00;78.10
80232;DHT22;74189;42.124;24.752;2024-03-02T13:20:01;12.00;75.60
80232;DHT22;74189;42.124;24.752;2024-03-02T13:22:27;11.90;76.60
80232;DHT22;74189;42.124;24.752;2024-03-02T13:24:53;11.80;75.80
80232;DHT22;74189;42.124;24.752;2024-03-02T13:27:23;11.70;79.20
80232;DHT22;74189;42.124;24.752;2024-03-02T13:29:49;11.70;77.00
80232;DHT22;74189;42.124;24.752;2024-03-02T13:32:16;11.60;77.10
80232;DHT22;74189;42.124;24.752;2024-03-02T13:34:43;11.70;77.50
80232;DHT22;74189;42.124;24.752;2024-03-02T13:37:09;11.80;77.50
80232;DHT22;74189;42.124;24.752;2024-03-02T13:39:36;11.90;75.20
80232;DHT22;74189;42.124;24.752;2024-03-02T13:42:09;12.00;75.30
80232;DHT22;74189;42.124;24.752;2024-03-02T13:44:37;12.10;76.30
80232;DHT22;74189;42.124;24.752;2024-03-02T13:47:03;12.20;76.60
80232;DHT22;74189;42.124;24.752;2024-03-02T13:49:31;12.40;76.40
80232;DHT22;74189;42.124;24.752;2024-03-02T13:52:05;12.50;73.40
80232;DHT22;74189;42.124;24.752;2024-03-02T13:54:39;12.30;73.90
80232;DHT22;74189;42.124;24.752;2024-03-02T13:57:07;12.10;75.20
80232;DHT22;74189;42.124;24.752;2024-03-02T13:59:34;12.00;76.30
80232;DHT22;74189;42.124;24.752;2024-03-02T14:02:02;11.90;77.70
80232;DHT22;74189;42.124;24.752;2024-03-02T14:04:31;12.00;75.70
80232;DHT22;74189;42.124;24.752;2024-03-02T14:06:59;12.10;76.10
80232;DHT22;74189;42.124;24.752;2024-03-02T14:09:26;12.10;76.50
80232;DHT22;74189;42.124;24.752;2024-03-02T14:11:53;12.20;76.20
80232;DHT22;74189;42.124;24.752;2024-03-02T14:14:20;12.30;74.50
80232;DHT22;74189;42.124;24.752;2024-03-02T14:16:46;12.40;75.40
80232;DHT22;74189;42.124;24.752;2024-03-02T14:19:13;12.40;75.40
80232;DHT22;74189;42.124;24.752;2024-03-02T14:21:42;12.40;76.40
80232;DHT22;74189;42.124;24.752;2024-03-02T14:24:08;12.30;77.80
80232;DHT22;74189;42.124;24.752;2024-03-02T14:26:36;12.30;76.70
80232;DHT22;74189;42.124;24.752;2024-03-02T14:29:03;12.30;76.50
80232;DHT22;74189;42.124;24.752;2024-03-02T14:31:30;12.40;76.00
80232;DHT22;74189;42.124;24.752;2024-03-02T14:33:59;12.50;75.20
80232;DHT22;74189;42.124;24.752;2024-03-02T14:36:26;12.40;76.70
80232;DHT22;74189;42.124;24.752;2024-03-02T14:38:55;12.40;77.10
80232;DHT22;74189;42.124;24.752;2024-03-02T14:41:22;12.40;76.90
80232;DHT22;74189;42.124;24.752;2024-03-02T14:43:50;12.40;76.60
80232;DHT22;74189;42.124;24.752;2024-03-02T14:46:17;12.20;77.40
80232;DHT22;74189;42.124;24.752;2024-03-02T14:48:46;12.30;77.10
80232;DHT22;74189;42.124;24.752;2024-03-02T14:51:13;12.20;76.90
80232;DHT22;74189;42.124;24.752;2024-03-02T14:53:40;12.20;76.80
80232;DHT22;74189;42.124;24.752;2024-03-02T14:56:06;12.20;76.50
80232;DHT22;74189;42.124;24.752;2024-03-02T14:58:33;12.10;77.30
80232;DHT22;74189;42.124;24.752;2024-03-02T15:01:01;12.00;78.10
80232;DHT22;74189;42.124;24.752;2024-03-02T15:03:27;11.90;78.10
80232;DHT22;74189;42.124;24.752;2024-03-02T15:05:56;11.90;77.70
80232;DHT22;74189;42.124;24.752;2024-03-02T15:08:22;12.00;76.80
80232;DHT22;74189;42.124;24.752;2024-03-02T15:10:49;12.10;76.20
80232;DHT22;74189;42.124;24.752;2024-03-02T15:13:15;12.10;76.10
80232;DHT22;74189;42.124;24.752;2024-03-02T15:15:42;12.00;76.30
80232;DHT22;74189;42.124;24.752;2024-03-02T15:18:08;12.00;76.40
80232;DHT22;74189;42.124;24.752;2024-03-02T15:20:35;12.00;75.50
80232;DHT22;74189;42.124;24.752;2024-03-02T15:23:01;11.90;76.00
80232;DHT22;74189;42.124;24.752;2024-03-02T15:25:27;11.90;76.50